sensor_id;sensor_type;location;lat;lon;timestamp;temperature;humidity
20035;DHT22;10178;48.034;9.800;2023-06-26T00:00:18;23.80;97.10
20035;DHT22;10178;48.034;9.800;2023-06-26T00:02:44;23.70;97.10
20035;DHT22;10178;48.034;9.800;2023-06-26T00:05:10;23.70;97.10
20035;DHT22;10178;48.034;9.800;2023-06-26T00:07:36;23.70;97.10
20035;DHT22;10178;48.034;9.800;2023-06-26T00:10:05;23.70;97.50
20035;DHT22;10178;48.034;9.800;2023-06-26T00:12:31;23.60;97.10
20035;DHT22;10178;48.034;9.800;2023-06-26T00:14:57;23.60;97.20
20035;DHT22;10178;48.034;9.800;2023-06-26T00:17:22;23.60;97.50
20035;DHT22;10178;48.034;9.800;2023-06-26T00:19:49;23.50;97.50
20035;DHT22;10178;48.034;9.800;2023-06-26T00:22:15;23.50;97.30
20035;DHT22;10178;48.034;9.800;2023-06-26T00:24:40;23.50;97.20
20035;DHT22;10178;48.034;9.800;2023-06-26T00:27:06;23.50;97.20
20035;DHT22;10178;48.034;9.800;2023-06-26T00:29:32;23.50;97.30
20035;DHT22;10178;48.034;9.800;2023-06-26T00:31:58;23.40;97.60
20035;DHT22;10178;48.034;9.800;2023-06-26T00:34:23;23.30;97.30
20035;DHT22;10178;48.034;9.800;2023-06-26T00:36:49;23.30;97.30
20035;DHT22;10178;48.034;9.800;2023-06-26T00:39:15;23.30;97.30
20035;DHT22;10178;48.034;9.800;2023-06-26T00:41:41;23.30;97.60
20035;DHT22;10178;48.034;9.800;2023-06-26T00:44:06;23.20;97.30
20035;DHT22;10178;48.034;9.800;2023-06-26T00:46:33;23.20;97.70
20035;DHT22;10178;48.034;9.800;2023-06-26T00:49:00;23.20;97.40
20035;DHT22;10178;48.034;9.800;2023-06-26T00:51:29;23.20;97.40
20035;DHT22;10178;48.034;9.800;2023-06-26T00:53:55;23.10;97.40
20035;DHT22;10178;48.034;9.800;2023-06-26T00:56:22;23.10;97.40
20035;DHT22;10178;48.034;9.800;2023-06-26T00:58:48;23.10;97.50
20035;DHT22;10178;48.034;9.800;2023-06-26T01:01:14;23.10;97.50
20035;DHT22;10178;48.034;9.800;2023-06-26T01:03:43;23.00;97.50
20035;DHT22;10178;48.034;9.800;2023-06-26T01:06:11;23.00;97.50
20035;DHT22;10178;48.034;9.800;2023-06-26T01:08:37;23.00;97.50
20035;DHT22;10178;48.034;9.800;2023-06-26T01:11:04;23.00;97.50
20035;DHT22;10178;48.034;9.800;2023-06-26T01:13:30;22.90;97.50
20035;DHT22;10178;48.034;9.800;2023-06-26T01:15:58;22.90;97.50
20035;DHT22;10178;48.034;9.800;2023-06-26T01:18:25;22.90;97.50
20035;DHT22;10178;48.034;9.800;2023-06-26T01:20:52;22.90;97.60
20035;DHT22;10178;48.034;9.800;2023-06-26T01:28:39;22.80;97.60
20035;DHT22;10178;48.034;9.800;2023-06-26T01:31:07;22.70;97.60
20035;DHT22;10178;48.034;9.800;2023-06-26T01:33:34;22.70;97.60
20035;DHT22;10178;48.034;9.800;2023-06-26T01:36:00;22.60;97.70
20035;DHT22;10178;48.034;9.800;2023-06-26T01:38:26;22.60;97.70
20035;DHT22;10178;48.034;9.800;2023-06-26T01:40:52;22.60;97.70
20035;DHT22;10178;48.034;9.800;2023-06-26T01:46:27;22.50;97.70
20035;DHT22;10178;48.034;9.800;2023-06-26T01:48:59;22.60;97.70
20035;DHT22;10178;48.034;9.800;2023-06-26T01:51:31;22.40;98.10
20035;DHT22;10178;48.034;9.800;2023-06-26T01:53:59;20.30;99.90
20035;DHT22;10178;48.034;9.800;2023-06-26T01:56:26;18.70;99.90
20035;DHT22;10178;48.034;9.800;2023-06-26T01:58:54;18.10;99.90
20035;DHT22;10178;48.034;9.800;2023-06-26T02:01:21;19.10;99.90
20035;DHT22;10178;48.034;9.800;2023-06-26T02:03:47;20.00;99.90
20035;DHT22;10178;48.034;9.800;2023-06-26T02:06:14;20.40;99.90
20035;DHT22;10178;48.034;9.800;2023-06-26T02:08:40;21.00;99.90
20035;DHT22;10178;48.034;9.800;2023-06-26T02:11:06;21.40;99.80
20035;DHT22;10178;48.034;9.800;2023-06-26T02:13:31;21.70;99.70
20035;DHT22;10178;48.034;9.800;2023-06-26T02:15:57;21.90;99.00
20035;DHT22;10178;48.034;9.800;2023-06-26T02:18:23;21.90;98.80
20035;DHT22;10178;48.034;9.800;2023-06-26T02:20:50;21.30;99.50
20035;DHT22;10178;48.034;9.800;2023-06-26T02:23:16;21.60;99.20
20035;DHT22;10178;48.034;9.800;2023-06-26T02:25:41;21.80;98.90
20035;DHT22;10178;48.034;9.800;2023-06-26T02:28:07;21.90;98.80
20035;DHT22;10178;48.034;9.800;2023-06-26T02:30:32;22.00;98.60
20035;DHT22;10178;48.034;9.800;2023-06-26T02:32:58;22.00;98.50
20035;DHT22;10178;48.034;9.800;2023-06-26T02:35:23;22.10;98.50
20035;DHT22;10178;48.034;9.800;2023-06-26T02:37:49;22.10;98.40
20035;DHT22;10178;48.034;9.800;2023-06-26T02:40:15;22.10;98.40
20035;DHT22;10178;48.034;9.800;2023-06-26T02:42:41;22.10;98.30
20035;DHT22;10178;48.034;9.800;2023-06-26T02:45:07;22.10;98.30
20035;DHT22;10178;48.034;9.800;2023-06-26T02:47:33;22.00;98.30
20035;DHT22;10178;48.034;9.800;2023-06-26T02:49:58;22.00;98.40
20035;DHT22;10178;48.034;9.800;2023-06-26T02:52:24;22.00;98.30
20035;DHT22;10178;48.034;9.800;2023-06-26T02:54:49;22.00;98.30
20035;DHT22;10178;48.034;9.800;2023-06-26T02:57:15;21.90;98.40
20035;DHT22;10178;48.034;9.800;2023-06-26T02:59:42;21.90;98.30
20035;DHT22;10178;48.034;9.800;2023-06-26T03:02:08;21.90;98.40
20035;DHT22;10178;48.034;9.800;2023-06-26T03:04:33;21.90;98.30
20035;DHT22;10178;48.034;9.800;2023-06-26T03:07:02;21.90;98.70
20035;DHT22;10178;48.034;9.800;2023-06-26T03:09:28;21.90;98.40
20035;DHT22;10178;48.034;9.800;2023-06-26T03:11:53;21.80;98.30
20035;DHT22;10178;48.034;9.800;2023-06-26T03:14:21;21.80;98.30
20035;DHT22;10178;48.034;9.800;2023-06-26T03:16:47;21.80;98.40
20035;DHT22;10178;48.034;9.800;2023-06-26T03:19:12;21.80;98.40
20035;DHT22;10178;48.034;9.800;2023-06-26T03:21:38;21.70;98.40
20035;DHT22;10178;48.034;9.800;2023-06-26T03:24:04;21.70;98.40
20035;DHT22;10178;48.034;9.800;2023-06-26T03:26:30;21.70;98.40
20035;DHT22;10178;48.034;9.800;2023-06-26T03:28:55;21.70;98.40
20035;DHT22;10178;48.034;9.800;2023-06-26T03:31:21;21.70;98.70
20035;DHT22;10178;48.034;9.800;2023-06-26T03:33:47;21.70;98.40
20035;DHT22;10178;48.034;9.800;2023-06-26T03:36:12;21.60;98.40
20035;DHT22;10178;48.034;9.800;2023-06-26T03:38:38;21.60;98.70
20035;DHT22;10178;48.034;9.800;2023-06-26T03:41:03;20.70;99.80
20035;DHT22;10178;48.034;9.800;2023-06-26T03:43:29;21.00;99.30
20035;DHT22;10178;48.034;9.800;2023-06-26T03:45:55;21.00;99.20
20035;DHT22;10178;48.034;9.800;2023-06-26T03:48:20;20.70;99.70
20035;DHT22;10178;48.034;9.800;2023-06-26T03:50:47;20.00;99.90
20035;DHT22;10178;48.034;9.800;2023-06-26T03:53:13;20.20;99.90
20035;DHT22;10178;48.034;9.800;2023-06-26T03:55:38;20.60;99.90
20035;DHT22;10178;48.034;9.800;2023-06-26T03:58:04;20.50;99.90
20035;DHT22;10178;48.034;9.800;2023-06-26T04:00:30;18.70;99.90
20035;DHT22;10178;48.034;9.800;2023-06-26T04:02:56;18.80;99.90
20035;DHT22;10178;48.034;9.800;2023-06-26T04:05:22;19.40;99.90
20035;DHT22;10178;48.034;9.800;2023-06-26T04:07:52;19.80;99.90
20035;DHT22;10178;48.034;9.800;2023-06-26T04:10:18;20.20;99.90
20035;DHT22;10178;48.034;9.800;2023-06-26T04:12:44;20.50;99.90
20035;DHT22;10178;48.034;9.800;2023-06-26T04:15:09;20.70;99.90
20035;DHT22;10178;48.034;9.800;2023-06-26T04:17:35;20.90;99.90
20035;DHT22;10178;48.034;9.800;2023-06-26T04:20:01;21.00;99.90
20035;DHT22;10178;48.034;9.800;2023-06-26T04:22:26;19.50;99.90
20035;DHT22;10178;48.034;9.800;2023-06-26T04:24:52;17.90;99.90
20035;DHT22;10178;48.034;9.800;2023-06-26T04:27:18;18.50;99.90
20035;DHT22;10178;48.034;9.800;2023-06-26T04:29:44;19.30;99.90
20035;DHT22;10178;48.034;9.800;2023-06-26T04:32:09;19.80;99.90
20035;DHT22;10178;48.034;9.800;2023-06-26T04:34:35;20.20;99.90
20035;DHT22;10178;48.034;9.800;2023-06-26T04:37:02;19.50;99.90
20035;DHT22;10178;48.034;9.800;2023-06-26T04:39:30;18.70;99.90
20035;DHT22;10178;48.034;9.800;2023-06-26T04:41:56;18.10;99.90
20035;DHT22;10178;48.034;9.800;2023-06-26T04:44:21;17.20;99.90
20035;DHT22;10178;48.034;9.800;2023-06-26T04:46:47;16.60;99.90
20035;DHT22;10178;48.034;9.800;2023-06-26T04:49:12;16.20;99.90
20035;DHT22;10178;48.034;9.800;2023-06-26T04:51:38;16.30;99.90
20035;DHT22;10178;48.034;9.800;2023-06-26T04:54:10;16.00;99.90
20035;DHT22;10178;48.034;9.800;2023-06-26T04:56:36;16.10;99.90
20035;DHT22;10178;48.034;9.800;2023-06-26T04:59:02;16.30;99.90
20035;DHT22;10178;48.034;9.800;2023-06-26T05:01:28;16.70;99.90
20035;DHT22;10178;48.034;9.800;2023-06-26T05:04:04;16.70;99.90
20035;DHT22;10178;48.034;9.800;2023-06-26T05:06:29;16.70;99.90
20035;DHT22;10178;48.034;9.800;2023-06-26T05:08:55;17.00;99.90
20035;DHT22;10178;48.034;9.800;2023-06-26T05:11:21;17.40;99.90
20035;DHT22;10178;48.034;9.800;2023-06-26T05:13:47;17.80;99.90
20035;DHT22;10178;48.034;9.800;2023-06-26T05:16:12;18.60;99.90
20035;DHT22;10178;48.034;9.800;2023-06-26T05:18:38;19.20;99.90
20035;DHT22;10178;48.034;9.800;2023-06-26T05:21:04;19.70;99.90
20035;DHT22;10178;48.034;9.800;2023-06-26T05:23:33;20.10;99.90
20035;DHT22;10178;48.034;9.800;2023-06-26T05:26:03;20.30;99.90
20035;DHT22;10178;48.034;9.800;2023-06-26T05:28:29;20.50;99.90
20035;DHT22;10178;48.034;9.800;2023-06-26T05:30:57;20.70;99.90
20035;DHT22;10178;48.034;9.800;2023-06-26T05:33:24;20.60;99.90
20035;DHT22;10178;48.034;9.800;2023-06-26T05:35:52;20.80;99.90
20035;DHT22;10178;48.034;9.800;2023-06-26T05:38:18;20.90;99.90
20035;DHT22;10178;48.034;9.800;2023-06-26T05:40:44;20.60;99.90
20035;DHT22;10178;48.034;9.800;2023-06-26T05:43:10;20.70;99.90
20035;DHT22;10178;48.034;9.800;2023-06-26T05:45:36;20.80;99.90
20035;DHT22;10178;48.034;9.800;2023-06-26T05:48:02;20.90;99.90
20035;DHT22;10178;48.034;9.800;2023-06-26T05:50:28;20.80;99.90
20035;DHT22;10178;48.034;9.800;2023-06-26T05:52:54;20.90;99.90
20035;DHT22;10178;48.034;9.800;2023-06-26T05:55:20;21.30;99.90
20035;DHT22;10178;48.034;9.800;2023-06-26T05:57:47;21.40;99.90
20035;DHT22;10178;48.034;9.800;2023-06-26T06:00:13;21.70;99.90
20035;DHT22;10178;48.034;9.800;2023-06-26T06:02:39;21.90;99.90
20035;DHT22;10178;48.034;9.800;2023-06-26T06:05:06;21.90;99.90
20035;DHT22;10178;48.034;9.800;2023-06-26T06:07:33;22.00;99.90
20035;DHT22;10178;48.034;9.800;2023-06-26T06:09:59;22.10;99.90
20035;DHT22;10178;48.034;9.800;2023-06-26T06:12:25;22.30;99.90
20035;DHT22;10178;48.034;9.800;2023-06-26T06:14:51;22.60;99.90
20035;DHT22;10178;48.034;9.800;2023-06-26T06:17:17;22.70;99.90
20035;DHT22;10178;48.034;9.800;2023-06-26T06:19:44;22.90;99.90
20035;DHT22;10178;48.034;9.800;2023-06-26T06:22:10;23.00;99.90
20035;DHT22;10178;48.034;9.800;2023-06-26T06:24:35;23.20;99.90
20035;DHT22;10178;48.034;9.800;2023-06-26T06:27:01;23.30;99.90
20035;DHT22;10178;48.034;9.800;2023-06-26T06:29:27;23.40;99.90
20035;DHT22;10178;48.034;9.800;2023-06-26T06:31:52;23.50;99.90
20035;DHT22;10178;48.034;9.800;2023-06-26T06:34:18;23.50;99.90
20035;DHT22;10178;48.034;9.800;2023-06-26T06:36:43;23.70;99.90
20035;DHT22;10178;48.034;9.800;2023-06-26T06:39:09;23.80;99.90
20035;DHT22;10178;48.034;9.800;2023-06-26T06:41:34;23.90;99.90
20035;DHT22;10178;48.034;9.800;2023-06-26T06:44:00;23.90;99.90
20035;DHT22;10178;48.034;9.800;2023-06-26T06:46:26;24.00;99.90
20035;DHT22;10178;48.034;9.800;2023-06-26T06:48:53;24.20;99.90
20035;DHT22;10178;48.034;9.800;2023-06-26T06:51:18;24.20;99.90
20035;DHT22;10178;48.034;9.800;2023-06-26T06:53:44;24.40;99.90
20035;DHT22;10178;48.034;9.800;2023-06-26T06:56:09;24.50;99.90
20035;DHT22;10178;48.034;9.800;2023-06-26T06:58:35;24.60;99.90
20035;DHT22;10178;48.034;9.800;2023-06-26T07:01:01;24.60;99.90
20035;DHT22;10178;48.034;9.800;2023-06-26T07:03:28;24.80;99.90
20035;DHT22;10178;48.034;9.800;2023-06-26T07:05:54;24.80;99.80
20035;DHT22;10178;48.034;9.800;2023-06-26T07:08:20;24.80;99.90
20035;DHT22;10178;48.034;9.800;2023-06-26T07:10:46;24.90;99.90
20035;DHT22;10178;48.034;9.800;2023-06-26T07:13:11;25.00;99.90
20035;DHT22;10178;48.034;9.800;2023-06-26T07:15:37;25.10;99.90
20035;DHT22;10178;48.034;9.800;2023-06-26T07:18:03;25.10;99.90
20035;DHT22;10178;48.034;9.800;2023-06-26T07:20:28;25.20;99.90
20035;DHT22;10178;48.034;9.800;2023-06-26T07:22:54;25.50;99.90
20035;DHT22;10178;48.034;9.800;2023-06-26T07:25:19;25.40;99.90
20035;DHT22;10178;48.034;9.800;2023-06-26T07:27:45;25.50;99.90
20035;DHT22;10178;48.034;9.800;2023-06-26T07:30:11;25.40;99.90
20035;DHT22;10178;48.034;9.800;2023-06-26T07:32:37;25.50;99.90
20035;DHT22;10178;48.034;9.800;2023-06-26T07:35:03;25.60;99.90
20035;DHT22;10178;48.034;9.800;2023-06-26T07:37:29;25.70;99.90
20035;DHT22;10178;48.034;9.800;2023-06-26T07:39:55;25.70;99.90
20035;DHT22;10178;48.034;9.800;2023-06-26T07:42:20;26.00;99.90
20035;DHT22;10178;48.034;9.800;2023-06-26T07:44:46;26.00;99.90
20035;DHT22;10178;48.034;9.800;2023-06-26T07:47:12;26.10;99.90
20035;DHT22;10178;48.034;9.800;2023-06-26T07:49:37;26.20;99.90
20035;DHT22;10178;48.034;9.800;2023-06-26T07:52:04;26.10;99.70
20035;DHT22;10178;48.034;9.800;2023-06-26T07:54:30;26.00;99.90
20035;DHT22;10178;48.034;9.800;2023-06-26T07:57:03;25.90;99.90
20035;DHT22;10178;48.034;9.800;2023-06-26T07:59:30;26.20;99.90
20035;DHT22;10178;48.034;9.800;2023-06-26T08:01:57;26.10;99.90
20035;DHT22;10178;48.034;9.800;2023-06-26T08:04:24;26.40;99.90
20035;DHT22;10178;48.034;9.800;2023-06-26T08:06:52;26.50;99.90
20035;DHT22;10178;48.034;9.800;2023-06-26T08:09:19;26.70;99.90
20035;DHT22;10178;48.034;9.800;2023-06-26T08:11:45;26.80;99.90
20035;DHT22;10178;48.034;9.800;2023-06-26T08:14:10;26.70;99.90
20035;DHT22;10178;48.034;9.800;2023-06-26T08:16:39;26.80;99.90
20035;DHT22;10178;48.034;9.800;2023-06-26T08:19:05;26.90;99.90
20035;DHT22;10178;48.034;9.800;2023-06-26T08:21:31;27.00;99.90
20035;DHT22;10178;48.034;9.800;2023-06-26T08:23:56;26.70;99.90
20035;DHT22;10178;48.034;9.800;2023-06-26T08:26:22;26.70;99.90
20035;DHT22;10178;48.034;9.800;2023-06-26T08:28:48;26.80;99.90
20035;DHT22;10178;48.034;9.800;2023-06-26T08:31:13;26.90;99.90
20035;DHT22;10178;48.034;9.800;2023-06-26T08:33:39;27.20;99.90
20035;DHT22;10178;48.034;9.800;2023-06-26T08:36:04;27.40;99.90
20035;DHT22;10178;48.034;9.800;2023-06-26T08:38:30;27.40;99.90
20035;DHT22;10178;48.034;9.800;2023-06-26T08:40:56;27.60;99.90
20035;DHT22;10178;48.034;9.800;2023-06-26T08:43:21;27.70;99.90
20035;DHT22;10178;48.034;9.800;2023-06-26T08:45:48;27.60;99.90
20035;DHT22;10178;48.034;9.800;2023-06-26T08:48:17;27.90;99.90
20035;DHT22;10178;48.034;9.800;2023-06-26T08:50:43;28.20;99.60
20035;DHT22;10178;48.034;9.800;2023-06-26T08:53:28;28.20;99.90
20035;DHT22;10178;48.034;9.800;2023-06-26T08:55:57;28.20;99.90
20035;DHT22;10178;48.034;9.800;2023-06-26T08:58:23;28.00;99.90
20035;DHT22;10178;48.034;9.800;2023-06-26T09:00:49;28.00;99.70
20035;DHT22;10178;48.034;9.800;2023-06-26T09:03:15;28.10;99.90
20035;DHT22;10178;48.034;9.800;2023-06-26T09:05:41;28.30;99.30
20035;DHT22;10178;48.034;9.800;2023-06-26T09:08:07;28.40;99.20
20035;DHT22;10178;48.034;9.800;2023-06-26T09:10:33;28.30;99.30
20035;DHT22;10178;48.034;9.800;2023-06-26T09:12:59;27.80;99.70
20035;DHT22;10178;48.034;9.800;2023-06-26T09:15:26;27.30;99.90
20035;DHT22;10178;48.034;9.800;2023-06-26T09:17:56;27.40;99.90
20035;DHT22;10178;48.034;9.800;2023-06-26T09:20:22;27.60;99.90
20035;DHT22;10178;48.034;9.800;2023-06-26T09:22:48;27.90;99.70
20035;DHT22;10178;48.034;9.800;2023-06-26T09:25:14;27.90;99.90
20035;DHT22;10178;48.034;9.800;2023-06-26T09:27:40;28.00;99.50
20035;DHT22;10178;48.034;9.800;2023-06-26T09:30:08;28.20;99.60
20035;DHT22;10178;48.034;9.800;2023-06-26T09:32:35;28.20;98.20
20035;DHT22;10178;48.034;9.800;2023-06-26T09:35:03;28.70;98.90
20035;DHT22;10178;48.034;9.800;2023-06-26T09:37:29;28.70;98.70
20035;DHT22;10178;48.034;9.800;2023-06-26T09:39:55;28.50;97.60
20035;DHT22;10178;48.034;9.800;2023-06-26T09:42:22;28.70;99.50
20035;DHT22;10178;48.034;9.800;2023-06-26T09:44:48;28.90;98.90
20035;DHT22;10178;48.034;9.800;2023-06-26T09:47:21;28.90;97.40
20035;DHT22;10178;48.034;9.800;2023-06-26T09:49:47;28.80;98.50
20035;DHT22;10178;48.034;9.800;2023-06-26T09:52:16;28.80;98.20
20035;DHT22;10178;48.034;9.800;2023-06-26T09:54:43;29.00;97.60
20035;DHT22;10178;48.034;9.800;2023-06-26T09:57:13;29.10;97.00
20035;DHT22;10178;48.034;9.800;2023-06-26T09:59:39;28.90;98.10
20035;DHT22;10178;48.034;9.800;2023-06-26T10:02:06;29.00;98.90
20035;DHT22;10178;48.034;9.800;2023-06-26T10:04:32;29.10;97.90
20035;DHT22;10178;48.034;9.800;2023-06-26T10:07:01;29.10;98.30
20035;DHT22;10178;48.034;9.800;2023-06-26T10:09:27;29.00;98.30
20035;DHT22;10178;48.034;9.800;2023-06-26T10:11:56;28.70;98.80
20035;DHT22;10178;48.034;9.800;2023-06-26T10:14:26;28.90;98.80
20035;DHT22;10178;48.034;9.800;2023-06-26T10:16:52;29.00;98.10
20035;DHT22;10178;48.034;9.800;2023-06-26T10:19:24;28.80;98.30
20035;DHT22;10178;48.034;9.800;2023-06-26T10:21:53;28.50;98.90
20035;DHT22;10178;48.034;9.800;2023-06-26T10:24:21;28.70;97.80
20035;DHT22;10178;48.034;9.800;2023-06-26T10:26:49;28.70;98.50
20035;DHT22;10178;48.034;9.800;2023-06-26T10:29:17;28.70;97.60
20035;DHT22;10178;48.034;9.800;2023-06-26T10:31:48;29.00;97.90
20035;DHT22;10178;48.034;9.800;2023-06-26T10:34:15;29.00;96.40
20035;DHT22;10178;48.034;9.800;2023-06-26T10:36:41;29.00;98.00
20035;DHT22;10178;48.034;9.800;2023-06-26T10:39:06;28.90;97.60
20035;DHT22;10178;48.034;9.800;2023-06-26T10:41:40;29.10;99.00
20035;DHT22;10178;48.034;9.800;2023-06-26T10:44:08;29.40;97.90
20035;DHT22;10178;48.034;9.800;2023-06-26T10:46:51;29.10;97.60
20035;DHT22;10178;48.034;9.800;2023-06-26T10:49:25;29.40;97.00
20035;DHT22;10178;48.034;9.800;2023-06-26T10:51:52;29.40;97.70
20035;DHT22;10178;48.034;9.800;2023-06-26T10:54:19;29.20;95.50
20035;DHT22;10178;48.034;9.800;2023-06-26T10:56:49;29.00;97.30
20035;DHT22;10178;48.034;9.800;2023-06-26T10:59:23;29.10;97.50
20035;DHT22;10178;48.034;9.800;2023-06-26T11:02:04;29.50;97.70
20035;DHT22;10178;48.034;9.800;2023-06-26T11:07:21;28.60;98.40
20035;DHT22;10178;48.034;9.800;2023-06-26T11:09:59;28.60;98.60
20035;DHT22;10178;48.034;9.800;2023-06-26T11:12:38;27.60;99.40
20035;DHT22;10178;48.034;9.800;2023-06-26T11:15:15;27.50;99.50
20035;DHT22;10178;48.034;9.800;2023-06-26T11:17:42;28.30;97.80
20035;DHT22;10178;48.034;9.800;2023-06-26T11:20:10;28.90;95.10
20035;DHT22;10178;48.034;9.800;2023-06-26T11:22:38;29.00;97.10
20035;DHT22;10178;48.034;9.800;2023-06-26T11:25:05;28.70;97.80
20035;DHT22;10178;48.034;9.800;2023-06-26T11:30:06;27.80;98.60
20035;DHT22;10178;48.034;9.800;2023-06-26T11:32:32;27.70;98.90
20035;DHT22;10178;48.034;9.800;2023-06-26T11:34:59;27.30;99.50
20035;DHT22;10178;48.034;9.800;2023-06-26T11:37:25;27.60;97.30
20035;DHT22;10178;48.034;9.800;2023-06-26T11:39:50;27.60;98.70
20035;DHT22;10178;48.034;9.800;2023-06-26T11:42:20;27.70;98.90
20035;DHT22;10178;48.034;9.800;2023-06-26T11:44:46;27.30;99.20
20035;DHT22;10178;48.034;9.800;2023-06-26T11:47:13;27.40;97.10
20035;DHT22;10178;48.034;9.800;2023-06-26T11:49:42;27.40;99.00
20035;DHT22;10178;48.034;9.800;2023-06-26T11:52:08;27.00;99.30
20035;DHT22;10178;48.034;9.800;2023-06-26T11:54:34;26.80;99.50
20035;DHT22;10178;48.034;9.800;2023-06-26T11:56:59;26.90;99.50
20035;DHT22;10178;48.034;9.800;2023-06-26T11:59:37;27.10;99.30
20035;DHT22;10178;48.034;9.800;2023-06-26T12:02:12;27.20;99.30
20035;DHT22;10178;48.034;9.800;2023-06-26T12:04:41;27.30;99.40
20035;DHT22;10178;48.034;9.800;2023-06-26T12:07:08;27.40;99.90
20035;DHT22;10178;48.034;9.800;2023-06-26T12:09:43;27.50;99.10
20035;DHT22;10178;48.034;9.800;2023-06-26T12:12:14;27.50;99.20
20035;DHT22;10178;48.034;9.800;2023-06-26T12:14:41;27.40;99.70
20035;DHT22;10178;48.034;9.800;2023-06-26T12:17:12;27.30;99.40
20035;DHT22;10178;48.034;9.800;2023-06-26T12:19:46;27.50;98.70
20035;DHT22;10178;48.034;9.800;2023-06-26T12:22:16;27.30;99.60
20035;DHT22;10178;48.034;9.800;2023-06-26T12:24:42;27.30;99.90
20035;DHT22;10178;48.034;9.800;2023-06-26T12:27:17;27.40;98.90
20035;DHT22;10178;48.034;9.800;2023-06-26T12:29:52;27.70;99.10
20035;DHT22;10178;48.034;9.800;2023-06-26T12:32:18;27.70;99.00
20035;DHT22;10178;48.034;9.800;2023-06-26T12:34:49;27.70;99.00
20035;DHT22;10178;48.034;9.800;2023-06-26T12:37:15;27.60;99.30
20035;DHT22;10178;48.034;9.800;2023-06-26T12:39:51;27.70;99.90
20035;DHT22;10178;48.034;9.800;2023-06-26T12:42:22;27.80;99.20
20035;DHT22;10178;48.034;9.800;2023-06-26T12:44:49;27.60;99.30
20035;DHT22;10178;48.034;9.800;2023-06-26T12:47:16;27.30;99.60
20035;DHT22;10178;48.034;9.800;2023-06-26T12:49:43;27.10;99.70
20035;DHT22;10178;48.034;9.800;2023-06-26T12:52:13;27.10;99.70
20035;DHT22;10178;48.034;9.800;2023-06-26T12:54:40;27.10;99.90
20035;DHT22;10178;48.034;9.800;2023-06-26T12:57:07;27.00;99.90
20035;DHT22;10178;48.034;9.800;2023-06-26T12:59:35;26.70;99.90
20035;DHT22;10178;48.034;9.800;2023-06-26T13:02:01;26.00;99.90
20035;DHT22;10178;48.034;9.800;2023-06-26T13:04:27;25.60;99.90
20035;DHT22;10178;48.034;9.800;2023-06-26T13:06:53;25.30;99.90
20035;DHT22;10178;48.034;9.800;2023-06-26T13:09:21;25.10;99.90
20035;DHT22;10178;48.034;9.800;2023-06-26T13:11:47;23.10;99.90
20035;DHT22;10178;48.034;9.800;2023-06-26T13:14:13;22.40;99.90
20035;DHT22;10178;48.034;9.800;2023-06-26T13:16:39;22.50;99.90
20035;DHT22;10178;48.034;9.800;2023-06-26T13:19:05;22.60;99.90
20035;DHT22;10178;48.034;9.800;2023-06-26T13:21:30;22.00;99.90
20035;DHT22;10178;48.034;9.800;2023-06-26T13:23:56;21.90;99.90
20035;DHT22;10178;48.034;9.800;2023-06-26T13:26:23;22.20;99.90
20035;DHT22;10178;48.034;9.800;2023-06-26T13:28:49;22.60;99.90
20035;DHT22;10178;48.034;9.800;2023-06-26T13:31:15;22.70;99.90
20035;DHT22;10178;48.034;9.800;2023-06-26T13:33:40;22.90;99.90
20035;DHT22;10178;48.034;9.800;2023-06-26T13:36:06;23.50;99.90
20035;DHT22;10178;48.034;9.800;2023-06-26T13:38:35;23.80;99.90
20035;DHT22;10178;48.034;9.800;2023-06-26T13:41:01;24.00;99.90
20035;DHT22;10178;48.034;9.800;2023-06-26T13:43:27;24.30;99.90
20035;DHT22;10178;48.034;9.800;2023-06-26T13:45:53;24.40;99.90
20035;DHT22;10178;48.034;9.800;2023-06-26T13:48:19;24.40;99.90
20035;DHT22;10178;48.034;9.800;2023-06-26T13:50:46;23.80;99.90
20035;DHT22;10178;48.034;9.800;2023-06-26T13:53:12;23.60;99.90
20035;DHT22;10178;48.034;9.800;2023-06-26T13:55:38;23.70;99.90
20035;DHT22;10178;48.034;9.800;2023-06-26T13:58:04;23.70;99.90
20035;DHT22;10178;48.034;9.800;2023-06-26T14:00:34;24.10;99.90
20035;DHT22;10178;48.034;9.800;2023-06-26T14:03:01;24.40;99.90
20035;DHT22;10178;48.034;9.800;2023-06-26T14:05:31;24.70;99.90
20035;DHT22;10178;48.034;9.800;2023-06-26T14:07:56;25.00;99.90
20035;DHT22;10178;48.034;9.800;2023-06-26T14:10:22;25.30;99.90
20035;DHT22;10178;48.034;9.800;2023-06-26T14:12:48;25.50;99.90
20035;DHT22;10178;48.034;9.800;2023-06-26T14:15:14;25.70;99.90
20035;DHT22;10178;48.034;9.800;2023-06-26T14:17:40;25.70;99.90
20035;DHT22;10178;48.034;9.800;2023-06-26T14:20:10;25.70;99.90
20035;DHT22;10178;48.034;9.800;2023-06-26T14:22:41;25.80;99.90
20035;DHT22;10178;48.034;9.800;2023-06-26T14:25:08;25.80;99.90
20035;DHT22;10178;48.034;9.800;2023-06-26T14:27:34;25.80;99.90
20035;DHT22;10178;48.034;9.800;2023-06-26T14:30:00;25.80;99.90
20035;DHT22;10178;48.034;9.800;2023-06-26T14:32:26;25.80;99.90
20035;DHT22;10178;48.034;9.800;2023-06-26T14:34:51;25.80;99.90
20035;DHT22;10178;48.034;9.800;2023-06-26T14:37:17;25.80;99.90
20035;DHT22;10178;48.034;9.800;2023-06-26T14:39:44;25.90;99.90
20035;DHT22;10178;48.034;9.800;2023-06-26T14:42:10;25.80;99.90
20035;DHT22;10178;48.034;9.800;2023-06-26T14:44:36;26.00;99.90
20035;DHT22;10178;48.034;9.800;2023-06-26T14:47:02;26.00;99.90
20035;DHT22;10178;48.034;9.800;2023-06-26T14:49:27;26.00;99.90
20035;DHT22;10178;48.034;9.800;2023-06-26T14:51:53;26.10;99.90
20035;DHT22;10178;48.034;9.800;2023-06-26T14:54:19;26.10;99.90
20035;DHT22;10178;48.034;9.800;2023-06-26T14:56:44;26.20;99.90
20035;DHT22;10178;48.034;9.800;2023-06-26T14:59:11;26.20;99.90
20035;DHT22;10178;48.034;9.800;2023-06-26T15:01:38;26.30;99.90
20035;DHT22;10178;48.034;9.800;2023-06-26T15:04:05;26.40;99.90
20035;DHT22;10178;48.034;9.800;2023-06-26T15:06:30;26.60;99.90
20035;DHT22;10178;48.034;9.800;2023-06-26T15:08:56;26.90;99.90
20035;DHT22;10178;48.034;9.800;2023-06-26T15:11:21;27.30;99.90
20035;DHT22;10178;48.034;9.800;2023-06-26T15:13:47;27.50;99.90
20035;DHT22;10178;48.034;9.800;2023-06-26T15:16:13;27.80;99.90
20035;DHT22;10178;48.034;9.800;2023-06-26T15:18:39;28.00;99.90
20035;DHT22;10178;48.034;9.800;2023-06-26T15:21:05;28.20;99.90
20035;DHT22;10178;48.034;9.800;2023-06-26T15:23:30;28.40;99.90
20035;DHT22;10178;48.034;9.800;2023-06-26T15:25:56;28.50;99.90
20035;DHT22;10178;48.034;9.800;2023-06-26T15:28:22;28.50;99.90
20035;DHT22;10178;48.034;9.800;2023-06-26T15:30:47;28.60;99.90
20035;DHT22;10178;48.034;9.800;2023-06-26T15:33:13;28.60;99.90
20035;DHT22;10178;48.034;9.800;2023-06-26T15:35:39;28.70;99.90
20035;DHT22;10178;48.034;9.800;2023-06-26T15:38:05;28.70;99.90
20035;DHT22;10178;48.034;9.800;2023-06-26T15:40:30;28.60;99.90